createdAt,value
2023-04-15T00:00:36.137Z,14055.3848
2023-04-15T00:01:37.671Z,14060.1543
2023-04-15T00:02:39.156Z,14028.7695
2023-04-15T00:03:40.869Z,14019.7695
2023-04-15T00:04:41.982Z,14028.0771
2023-04-15T00:05:43.406Z,14028.0771
2023-04-15T00:06:44.809Z,14021.0000
2023-04-15T00:07:47.215Z,14016.7695
2023-04-15T00:08:47.688Z,14018.3848
2023-04-15T00:09:54.195Z,14025.8457
2023-04-15T00:10:50.606Z,14024.4619
2023-04-15T00:11:52.031Z,14040.0771
2023-04-15T00:12:53.437Z,14046.8457
2023-04-15T00:13:54.962Z,14044.3848
2023-04-15T00:14:56.359Z,14033.2305
2023-04-15T00:15:57.831Z,14034.7695
2023-04-15T00:16:59.250Z,14046.6924
2023-04-15T00:18:00.730Z,14040.6924
2023-04-15T00:19:02.363Z,14051.3076
2023-04-15T00:20:03.606Z,14059.1543
2023-04-15T00:21:05.044Z,14054.0771
2023-04-15T00:22:06.406Z,14049.6152
2023-04-15T00:23:07.834Z,14050.6152
2023-04-15T00:24:09.425Z,14058.0000
2023-04-15T00:25:10.798Z,14053.3848
2023-04-15T00:26:12.287Z,14061.5381
2023-04-15T00:27:13.655Z,14075.0771
2023-04-15T00:28:15.173Z,14069.4619
2023-04-15T00:29:16.577Z,14040.1543
2023-04-15T00:30:18.058Z,14018.5381
2023-04-15T00:31:19.442Z,14032.7695
2023-04-15T00:32:20.882Z,14038.8457
2023-04-15T00:33:22.306Z,14039.3848
2023-04-15T00:34:24.235Z,14029.0000
2023-04-15T00:35:25.219Z,14028.4619
2023-04-15T00:36:26.696Z,14026.3076
2023-04-15T00:37:28.099Z,14029.2305
2023-04-15T00:38:29.518Z,14035.3848
2023-04-15T00:39:31.202Z,14047.9229
2023-04-15T00:40:32.478Z,14058.3076
2023-04-15T00:41:34.599Z,14048.3848
2023-04-15T00:42:35.370Z,14052.0000
2023-04-15T00:43:36.687Z,14041.6924
2023-04-15T00:44:38.271Z,14046.9229
2023-04-15T00:45:39.670Z,14045.2305
2023-04-15T00:46:41.658Z,14065.7695
2023-04-15T00:47:42.507Z,14070.1543
2023-04-15T00:48:44.690Z,14060.4619
2023-04-15T00:49:45.516Z,14069.4619
2023-04-15T00:50:47.255Z,14028.6924
2023-04-15T00:51:48.338Z,14019.5381
2023-04-15T00:52:49.753Z,14025.3848
2023-04-15T00:53:51.166Z,14032.1543
2023-04-15T00:54:52.671Z,14039.3848
2023-04-15T00:55:54.655Z,14029.4619
2023-04-15T00:56:55.676Z,14018.5381
2023-04-15T00:57:57.040Z,14026.0000
2023-04-15T00:58:58.668Z,14020.7695
2023-04-15T00:59:59.929Z,14032.1543
2023-04-15T01:01:01.424Z,14046.8457
2023-04-15T01:02:02.904Z,14044.4619
2023-04-15T01:03:04.351Z,14039.6924
2023-04-15T01:04:06.706Z,14040.0000
2023-04-15T01:05:07.138Z,14042.6924
2023-04-15T01:06:08.748Z,14046.4619
2023-04-15T01:07:10.305Z,14050.6152
2023-04-15T01:08:11.411Z,14069.0000
2023-04-15T01:09:12.918Z,14059.4619
2023-04-15T01:10:14.274Z,14055.3848
2023-04-15T01:11:16.214Z,14051.3076
2023-04-15T01:12:17.222Z,14054.7695
2023-04-15T01:13:18.685Z,14063.8457
2023-04-15T01:14:22.661Z,14075.3848
2023-04-15T01:15:21.541Z,14075.0771
2023-04-15T01:16:23.054Z,14068.4619
2023-04-15T01:17:24.506Z,14026.0000
2023-04-15T01:18:25.854Z,14020.3076
2023-04-15T01:19:27.296Z,14034.0000
2023-04-15T01:20:28.720Z,14042.2305
2023-04-15T01:21:30.291Z,14048.5381
2023-04-15T01:22:32.129Z,14046.5381
2023-04-15T01:23:33.040Z,14030.8457
2023-04-15T01:24:34.404Z,14034.6924
2023-04-15T01:25:35.933Z,14032.6924
2023-04-15T01:26:37.401Z,14044.3848
2023-04-15T01:27:38.857Z,14058.2305
2023-04-15T01:28:40.242Z,14064.2305
2023-04-15T01:29:41.726Z,14051.7695
2023-04-15T01:30:43.091Z,14046.8457
2023-04-15T01:31:44.659Z,14053.0771
2023-04-15T01:32:46.090Z,14054.1543
2023-04-15T01:33:47.433Z,14056.6152
2023-04-15T01:34:51.690Z,14070.3848
2023-04-15T01:35:51.215Z,14066.6152
2023-04-15T01:36:51.756Z,14061.5381
2023-04-15T01:37:53.257Z,14059.4619
2023-04-15T01:38:54.692Z,14054.1543
2023-04-15T01:39:56.082Z,14056.0771
2023-04-15T01:40:57.647Z,14013.1543
2023-04-15T01:41:58.964Z,14036.6924
2023-04-15T01:43:00.469Z,14037.0000
2023-04-15T01:44:01.831Z,14025.0771
2023-04-15T01:45:03.286Z,14029.0771
2023-04-15T01:46:04.721Z,14019.6152
2023-04-15T01:47:06.169Z,14035.9229
2023-04-15T01:48:07.648Z,14033.7695
2023-04-15T01:49:09.181Z,14048.6152
2023-04-15T01:50:10.472Z,14057.1543
2023-04-15T01:51:11.924Z,14045.3848
2023-04-15T01:52:13.327Z,14036.3076
2023-04-15T01:53:14.886Z,14046.1543
2023-04-15T01:54:16.237Z,14049.0000
2023-04-15T01:55:17.781Z,14053.1543
2023-04-15T01:56:19.140Z,14064.3848
2023-04-15T01:57:20.559Z,14072.1543
2023-04-15T01:58:22.214Z,14060.9229
2023-04-15T01:59:23.658Z,14059.6152
2023-04-15T02:00:25.610Z,14054.1543
2023-04-15T02:01:26.484Z,14055.0771
2023-04-15T02:02:28.678Z,14065.9229
2023-04-15T02:03:29.367Z,14065.4619
2023-04-15T02:04:31.153Z,14070.7695
2023-04-15T02:05:32.122Z,14067.3076
2023-04-15T02:06:33.615Z,14079.1543
2023-04-15T02:07:35.052Z,14079.4619
2023-04-15T02:08:36.602Z,14026.8457
2023-04-15T02:09:37.934Z,14030.9229
2023-04-15T02:10:39.666Z,14036.0000
2023-04-15T02:11:40.765Z,14027.0771
2023-04-15T02:12:42.206Z,14024.9229
2023-04-15T02:13:43.725Z,14018.3848
2023-04-15T02:14:45.100Z,14022.4619
2023-04-15T02:15:46.537Z,14027.3076
2023-04-15T02:16:48.011Z,14030.5381
2023-04-15T02:17:50.200Z,14042.3848
2023-04-15T02:18:50.868Z,14049.3848
2023-04-15T02:19:52.716Z,14038.1543
2023-04-15T02:20:53.731Z,14044.4619
2023-04-15T02:21:55.164Z,14032.3076
2023-04-15T02:22:56.562Z,14037.7695
2023-04-15T02:23:58.141Z,14041.0000
2023-04-15T02:24:59.687Z,14044.1543
2023-04-15T02:26:00.924Z,14055.5381
2023-04-15T02:27:02.334Z,14050.2305
2023-04-15T02:28:03.802Z,14044.0000
2023-04-15T02:29:05.293Z,14053.0000
2023-04-15T02:30:06.777Z,14016.9229
2023-04-15T02:31:08.218Z,14018.7695
2023-04-15T02:32:09.633Z,14025.1543
2023-04-15T02:33:11.023Z,14027.0000
2023-04-15T02:34:12.427Z,14031.7695
2023-04-15T02:35:13.978Z,14021.7695
2023-04-15T02:36:15.686Z,14013.5381
2023-04-15T02:37:18.715Z,14013.6152
2023-04-15T02:38:18.187Z,14017.6924
2023-04-15T02:39:20.611Z,14023.3848
2023-04-15T02:40:21.221Z,14036.6152
2023-04-15T02:41:22.527Z,14043.2305
2023-04-15T02:42:24.164Z,14037.1543
2023-04-15T02:43:25.380Z,14023.9229
2023-04-15T02:44:26.844Z,14037.3848
2023-04-15T02:45:28.281Z,14032.9229
2023-04-15T02:46:29.855Z,14040.6152
2023-04-15T02:47:31.221Z,14051.5381
2023-04-15T02:48:32.632Z,14041.8457
2023-04-15T02:49:34.043Z,14043.7695
2023-04-15T02:50:36.151Z,14037.7695
2023-04-15T02:51:37.016Z,14035.1543
2023-04-15T02:52:38.453Z,14044.7695
2023-04-15T02:53:39.883Z,14056.7695
2023-04-15T02:54:41.288Z,14052.4619
2023-04-15T02:55:42.699Z,14050.2305
2023-04-15T02:56:44.158Z,14049.6152
2023-04-15T02:57:45.568Z,14046.0771
2023-04-15T02:58:47.105Z,14049.0771
2023-04-15T02:59:48.466Z,14041.6924
2023-04-15T03:00:49.940Z,14034.7695
2023-04-15T03:01:51.564Z,14037.2305
2023-04-15T03:02:53.329Z,14038.5381
2023-04-15T03:03:54.219Z,14040.6152
2023-04-15T03:04:55.652Z,14039.2305
2023-04-15T03:05:57.088Z,14038.5381
2023-04-15T03:06:58.731Z,14045.3076
2023-04-15T03:08:00.059Z,14035.0771
2023-04-15T03:09:01.692Z,14039.0000
2023-04-15T03:10:02.817Z,14043.7695
2023-04-15T03:11:04.321Z,14037.8457
2023-04-15T03:12:06.138Z,14036.3076
2023-04-15T03:13:07.247Z,14041.5381
2023-04-15T03:14:08.632Z,14039.5381
2023-04-15T03:15:10.048Z,14041.2305
2023-04-15T03:16:12.139Z,14039.8457
2023-04-15T03:17:13.047Z,14040.1543
2023-04-15T03:18:14.468Z,14039.7695
2023-04-15T03:19:16.185Z,14041.0000
2023-04-15T03:20:17.284Z,14041.6924
2023-04-15T03:21:18.835Z,14039.2305
2023-04-15T03:22:20.254Z,14046.6152
2023-04-15T03:23:21.735Z,14045.9229
2023-04-15T03:24:23.139Z,14053.9229
2023-04-15T03:25:25.232Z,14046.2305
2023-04-15T03:26:25.969Z,14038.1543
2023-04-15T03:27:27.489Z,14037.0771
2023-04-15T03:28:28.912Z,14038.3076
2023-04-15T03:29:30.386Z,14030.3848
2023-04-15T03:30:31.796Z,14039.4619
2023-04-15T03:31:33.314Z,14029.6152
2023-04-15T03:32:34.682Z,14030.6152
2023-04-15T03:33:36.265Z,14033.7695
2023-04-15T03:34:37.741Z,14036.6924
2023-04-15T03:35:39.012Z,14040.6152
2023-04-15T03:36:40.407Z,14033.3076
2023-04-15T03:37:44.725Z,14031.9229
2023-04-15T03:38:43.285Z,14030.9229
2023-04-15T03:39:44.767Z,14038.0000
2023-04-15T03:40:46.131Z,14038.7695
2023-04-15T03:41:47.593Z,14033.8457
2023-04-15T03:42:49.050Z,13993.3848
2023-04-15T03:43:50.775Z,14008.7695
2023-04-15T03:44:51.912Z,13993.3848
2023-04-15T03:45:53.380Z,13982.0000
2023-04-15T03:46:54.825Z,13989.5381
2023-04-15T03:47:56.555Z,13991.0771
2023-04-15T03:48:57.739Z,13996.3076
2023-04-15T03:49:59.151Z,13990.5381
2023-04-15T03:51:00.598Z,13993.4619
2023-04-15T03:52:01.965Z,13987.8457
2023-04-15T03:53:03.493Z,13993.4619
2023-04-15T03:54:04.912Z,13999.2305
2023-04-15T03:55:06.393Z,13992.4619
2023-04-15T03:56:07.743Z,14005.4619
2023-04-15T03:57:09.227Z,13999.7695
2023-04-15T03:58:10.607Z,14010.3848
2023-04-15T03:59:12.125Z,14001.9229
2023-04-15T04:00:13.562Z,14004.9229
2023-04-15T04:01:14.987Z,14003.5381
2023-04-15T04:02:16.465Z,14008.6152
2023-04-15T04:03:18.017Z,14011.8457
2023-04-15T04:04:19.357Z,14012.1543
2023-04-15T04:05:20.780Z,14012.2305
2023-04-15T04:06:22.150Z,14005.5381
2023-04-15T04:07:23.633Z,14015.4619
2023-04-15T04:08:25.011Z,14013.2305
2023-04-15T04:09:26.546Z,14008.0771
2023-04-15T04:10:27.960Z,14005.7695
2023-04-15T04:11:29.370Z,14010.6924
2023-04-15T04:12:30.809Z,14024.3848
2023-04-15T04:13:32.251Z,14020.6924
2023-04-15T04:14:33.719Z,14027.7695
2023-04-15T04:15:35.219Z,14019.6152
2023-04-15T04:16:36.637Z,14019.6924
2023-04-15T04:17:38.068Z,14028.9229
2023-04-15T04:18:39.406Z,14013.1543
2023-04-15T04:19:40.916Z,14029.4619
2023-04-15T04:20:42.805Z,14037.0000
2023-04-15T04:21:43.796Z,14036.3848
2023-04-15T04:22:45.233Z,14025.2305
2023-04-15T04:23:46.666Z,14027.6924
2023-04-15T04:24:48.105Z,14031.8457
2023-04-15T04:25:49.576Z,14034.3076
2023-04-15T04:26:50.893Z,14038.5381
2023-04-15T04:27:52.421Z,14034.0771
2023-04-15T04:28:53.741Z,14035.3076
2023-04-15T04:29:55.248Z,14029.4619
2023-04-15T04:30:56.714Z,14041.6924
2023-04-15T04:31:58.148Z,14042.4619
2023-04-15T04:32:59.594Z,14048.3076
2023-04-15T04:34:00.979Z,14044.0771
2023-04-15T04:35:02.403Z,14044.6152
2023-04-15T04:36:03.877Z,14042.2305
2023-04-15T04:37:05.229Z,14050.4619
2023-04-15T04:38:06.761Z,14059.0771
2023-04-15T04:39:08.078Z,14060.3848
2023-04-15T04:40:09.636Z,14061.6924
2023-04-15T04:41:11.081Z,14056.4619
2023-04-15T04:42:12.472Z,14058.8457
2023-04-15T04:43:13.893Z,14058.2305
2023-04-15T04:44:15.316Z,14057.8457
2023-04-15T04:45:16.781Z,14062.6152
2023-04-15T04:46:18.349Z,14067.0000
2023-04-15T04:47:19.648Z,14065.5381
2023-04-15T04:48:21.070Z,14063.1543
2023-04-15T04:49:22.464Z,14065.3848
2023-04-15T04:50:24.025Z,14061.8457
2023-04-15T04:51:25.478Z,14062.8457
2023-04-15T04:52:26.777Z,14060.7695
2023-04-15T04:53:28.303Z,14058.0771
2023-04-15T04:54:29.685Z,14055.7695
2023-04-15T04:55:31.361Z,14054.1543
2023-04-15T04:56:32.609Z,14052.6924
2023-04-15T04:57:34.028Z,14048.9229
2023-04-15T04:58:35.559Z,14044.9229
2023-04-15T04:59:37.084Z,14037.0000
2023-04-15T05:00:38.532Z,14037.7695
2023-04-15T05:01:39.983Z,14011.9229
2023-04-15T05:02:41.435Z,13963.2305
2023-04-15T05:03:42.946Z,13956.6924
2023-04-15T05:04:44.255Z,13956.5381
2023-04-15T05:05:45.651Z,13959.4619
2023-04-15T05:06:47.111Z,13951.8457
2023-04-15T05:07:48.580Z,13942.6924
2023-04-15T05:08:49.857Z,13971.4619
2023-04-15T05:09:51.393Z,13961.3076
2023-04-15T05:10:52.777Z,13952.4619
2023-04-15T05:11:54.347Z,13945.8457
2023-04-15T05:12:55.630Z,13928.4619
2023-04-15T05:13:57.107Z,13943.5381
2023-04-15T05:14:58.476Z,13954.4619
2023-04-15T05:16:00.118Z,13970.9229
2023-04-15T05:17:01.756Z,13936.7695
2023-04-15T05:18:02.929Z,13929.7695
2023-04-15T05:19:04.296Z,13922.9229
2023-04-15T05:20:06.268Z,13934.6152
2023-04-15T05:21:07.201Z,13940.6924
2023-04-15T05:22:08.580Z,13964.0771
2023-04-15T05:23:10.051Z,13937.7695
2023-04-15T05:24:11.484Z,13926.1543
2023-04-15T05:25:12.930Z,13915.9229
2023-04-15T05:26:14.347Z,13939.6924
2023-04-15T05:27:16.333Z,13940.3076
2023-04-15T05:28:17.200Z,13961.7695
2023-04-15T05:29:18.660Z,13924.5381
2023-04-15T05:30:20.043Z,13920.5381
2023-04-15T05:31:21.646Z,13915.6924
2023-04-15T05:32:23.324Z,13918.5381
2023-04-15T05:33:24.408Z,13938.6152
2023-04-15T05:34:25.785Z,13962.6924
2023-04-15T05:35:27.280Z,13925.0771
2023-04-15T05:36:28.757Z,13911.4619
2023-04-15T05:37:30.216Z,13907.8457
2023-04-15T05:38:31.564Z,13938.3848
2023-04-15T05:39:33.029Z,13948.7695
2023-04-15T05:40:34.429Z,13953.4619
2023-04-15T05:41:35.987Z,13917.9229
2023-04-15T05:42:37.360Z,13908.8457
2023-04-15T05:43:38.778Z,13918.3076
2023-04-15T05:44:40.209Z,13931.9229
2023-04-15T05:45:41.687Z,13943.3076
2023-04-15T05:46:43.111Z,13935.3076
2023-04-15T05:47:44.696Z,13907.7695
2023-04-15T05:48:45.920Z,13891.6152
2023-04-15T05:49:47.434Z,13922.0000
2023-04-15T05:50:48.822Z,13930.6152
2023-04-15T05:51:50.301Z,13950.8457
2023-04-15T05:52:51.688Z,13919.4619
2023-04-15T05:53:53.161Z,13901.1543
2023-04-15T05:54:54.952Z,13905.4619
2023-04-15T05:55:56.002Z,13929.2305
2023-04-15T05:56:57.545Z,13925.6152
2023-04-15T05:57:58.887Z,13932.6924
2023-04-15T05:59:00.592Z,13901.7695
2023-04-15T06:00:01.805Z,13888.7695
2023-04-15T06:01:03.299Z,13919.3076
2023-04-15T06:02:04.825Z,13919.5381
2023-04-15T06:03:06.198Z,13937.3076
2023-04-15T06:04:07.615Z,13901.4619
2023-04-15T06:05:09.017Z,13895.2305
2023-04-15T06:06:10.362Z,13904.2305
2023-04-15T06:07:11.933Z,13913.3076
2023-04-15T06:08:13.296Z,13907.0771
2023-04-15T06:09:15.334Z,13914.1543
2023-04-15T06:10:16.129Z,13892.3848
2023-04-15T06:11:17.627Z,13881.3076
2023-04-15T06:12:18.990Z,13907.3848
2023-04-15T06:13:20.496Z,13904.3076
2023-04-15T06:14:21.871Z,13911.6152
2023-04-15T06:15:23.355Z,13893.8457
2023-04-15T06:16:24.775Z,13873.2305
2023-04-15T06:17:26.209Z,13895.1543
2023-04-15T06:18:27.668Z,13902.6152
2023-04-15T06:19:29.091Z,13909.1543
2023-04-15T06:20:30.436Z,13915.6924
2023-04-15T06:21:31.939Z,13885.8457
2023-04-15T06:22:33.361Z,13872.4619
2023-04-15T06:23:35.310Z,13896.0000
2023-04-15T06:24:36.220Z,13908.5381
2023-04-15T06:25:37.672Z,13902.0771
2023-04-15T06:26:39.068Z,13884.3076
2023-04-15T06:27:40.588Z,13875.8457
2023-04-15T06:28:42.029Z,13885.7695
2023-04-15T06:29:43.495Z,13895.0000
2023-04-15T06:30:45.342Z,13912.0000
2023-04-15T06:31:46.390Z,13906.4619
2023-04-15T06:32:47.837Z,13874.7695
2023-04-15T06:33:49.148Z,13873.0771
2023-04-15T06:34:50.617Z,13886.0000
2023-04-15T06:35:52.111Z,13901.3076
2023-04-15T06:36:53.486Z,13893.6152
2023-04-15T06:37:54.894Z,13882.8457
2023-04-15T06:38:56.346Z,13862.3848
2023-04-15T06:39:57.817Z,13878.6152
2023-04-15T06:40:59.235Z,13885.6924
2023-04-15T06:42:00.711Z,13900.6924
2023-04-15T06:43:02.087Z,13889.3848
2023-04-15T06:44:03.581Z,13856.2305
2023-04-15T06:45:05.831Z,13864.7695
2023-04-15T06:46:06.524Z,13884.6152
2023-04-15T06:47:07.957Z,13895.2305
2023-04-15T06:48:09.264Z,13878.3076
2023-04-15T06:49:10.795Z,13863.3848
2023-04-15T06:50:12.176Z,13855.6924
2023-04-15T06:51:13.686Z,13878.8457
2023-04-15T06:52:15.093Z,13879.3076
2023-04-15T06:53:16.575Z,13889.0000
2023-04-15T06:54:17.942Z,13865.0000
2023-04-15T06:55:19.360Z,13847.3076
2023-04-15T06:56:20.828Z,13864.0771
2023-04-15T06:57:22.333Z,13863.7695
2023-04-15T06:58:23.834Z,13881.3076
2023-04-15T06:59:25.237Z,13873.9229
2023-04-15T07:00:26.604Z,13844.8457
2023-04-15T07:01:28.049Z,13848.6924
2023-04-15T07:02:29.648Z,13859.8457
2023-04-15T07:03:32.623Z,13866.2305
2023-04-15T07:04:32.384Z,13879.1543
2023-04-15T07:05:33.812Z,13836.9229
2023-04-15T07:06:35.153Z,13830.4619
2023-04-15T07:07:36.673Z,13843.5381
2023-04-15T07:08:38.094Z,13842.1543
2023-04-15T07:09:39.538Z,13844.7695
2023-04-15T07:10:40.907Z,13845.5381
2023-04-15T07:11:42.451Z,13822.0771
2023-04-15T07:12:44.308Z,13824.0000
2023-04-15T07:13:45.345Z,13833.7695
2023-04-15T07:14:46.681Z,13832.3848
2023-04-15T07:15:48.137Z,13847.4619
2023-04-15T07:16:49.573Z,13822.8457
2023-04-15T07:17:51.030Z,13810.6152
2023-04-15T07:18:52.524Z,13824.1543
2023-04-15T07:19:53.956Z,13824.5381
2023-04-15T07:20:55.343Z,13827.5381
2023-04-15T07:21:56.795Z,13812.6152
2023-04-15T07:22:58.175Z,13803.4619
2023-04-15T07:23:59.708Z,13822.1543
2023-04-15T07:25:01.289Z,13820.3076
2023-04-15T07:26:02.538Z,13829.7695
2023-04-15T07:27:03.944Z,13815.8457
2023-04-15T07:28:05.415Z,13805.0771
2023-04-15T07:29:06.849Z,13803.9229
2023-04-15T07:30:08.336Z,13819.1543
2023-04-15T07:31:09.748Z,13831.4619
2023-04-15T07:32:11.146Z,13846.6152
2023-04-15T07:33:12.562Z,13810.2305
2023-04-15T07:34:14.085Z,13801.6924
2023-04-15T07:35:15.477Z,13828.3848
2023-04-15T07:36:16.938Z,13842.3076
2023-04-15T07:37:18.312Z,13859.5381
2023-04-15T07:38:19.843Z,13832.7695
2023-04-15T07:39:21.296Z,13817.2305
2023-04-15T07:40:22.798Z,13806.6924
2023-04-15T07:41:24.083Z,13844.7695
2023-04-15T07:42:25.485Z,13848.0000
2023-04-15T07:43:26.891Z,13866.5381
2023-04-15T07:44:28.368Z,13835.5381
2023-04-15T07:45:30.289Z,13822.1543
2023-04-15T07:46:31.254Z,13819.6924
2023-04-15T07:47:32.695Z,13847.4619
2023-04-15T07:48:35.501Z,13866.8457
2023-04-15T07:49:35.523Z,13862.1543
2023-04-15T07:50:37.025Z,13841.6924
2023-04-15T07:51:38.413Z,13819.8457
2023-04-15T07:52:39.922Z,13829.6152
2023-04-15T07:53:41.329Z,13855.0771
2023-04-15T07:54:42.945Z,13880.1543
2023-04-15T07:55:44.197Z,13861.0771
2023-04-15T07:56:45.697Z,13845.4619
2023-04-15T07:57:47.007Z,13806.5381
2023-04-15T07:58:48.551Z,13848.5381
2023-04-15T07:59:50.326Z,13862.1543
2023-04-15T08:00:51.395Z,13887.0771
2023-04-15T08:01:52.849Z,13865.0771
2023-04-15T08:02:54.488Z,13842.6152
2023-04-15T08:03:55.924Z,13801.6924
2023-04-15T08:04:57.385Z,13851.3076
2023-04-15T08:05:58.640Z,13871.7695
2023-04-15T08:07:00.030Z,13884.3076
2023-04-15T08:08:01.488Z,13866.3848
2023-04-15T08:09:03.130Z,13837.5381
2023-04-15T08:10:04.412Z,13799.0771
2023-04-15T08:11:05.809Z,13863.0771
2023-04-15T08:12:07.223Z,13886.5381
2023-04-15T08:13:08.636Z,13883.0771
2023-04-15T08:14:10.139Z,13855.1543
2023-04-15T08:15:11.507Z,13826.4619
2023-04-15T08:16:13.067Z,13827.3076
2023-04-15T08:17:14.760Z,13872.5381
2023-04-15T08:18:15.978Z,13889.2305
2023-04-15T08:19:17.410Z,13875.7695
2023-04-15T08:20:18.813Z,13861.6924
2023-04-15T08:21:20.293Z,13830.6152
2023-04-15T08:22:22.418Z,13817.2305
2023-04-15T08:23:23.162Z,13882.8457
2023-04-15T08:24:24.595Z,13906.8457
2023-04-15T08:25:26.067Z,13882.3076
2023-04-15T08:26:27.523Z,13871.2305
2023-04-15T08:27:29.000Z,13845.8457
2023-04-15T08:28:30.354Z,13824.3848
2023-04-15T08:29:31.767Z,13880.2305
2023-04-15T08:30:33.215Z,13906.5381
2023-04-15T08:31:34.833Z,13891.0000
2023-04-15T08:32:36.173Z,13873.6152
2023-04-15T08:33:37.549Z,13829.2305
2023-04-15T08:34:38.948Z,13826.0771
2023-04-15T08:35:40.467Z,13887.1543
2023-04-15T08:36:41.896Z,13910.3076
2023-04-15T08:37:43.372Z,13889.3076
2023-04-15T08:38:44.736Z,13885.5381
2023-04-15T08:39:46.183Z,13839.2305
2023-04-15T08:40:47.684Z,13856.3076
2023-04-15T08:41:49.121Z,13890.1543
2023-04-15T08:42:50.898Z,13911.5381
2023-04-15T08:43:51.932Z,13889.1543
2023-04-15T08:44:53.443Z,13872.0000
2023-04-15T08:45:54.822Z,13855.1543
2023-04-15T08:46:56.331Z,13885.7695
2023-04-15T08:47:57.803Z,13888.0771
2023-04-15T08:48:59.263Z,13907.4619
2023-04-15T08:50:00.597Z,13888.3076
2023-04-15T08:51:02.112Z,13871.6924
2023-04-15T08:52:03.516Z,13821.6152
2023-04-15T08:53:05.002Z,13876.3076
2023-04-15T08:54:06.352Z,13906.1543
2023-04-15T08:55:07.806Z,13911.6924
2023-04-15T08:56:09.261Z,13888.2305
2023-04-15T08:57:10.731Z,13862.6924
2023-04-15T08:58:12.186Z,13841.6152
2023-04-15T08:59:13.537Z,13885.3076
2023-04-15T09:00:15.104Z,13908.5381
2023-04-15T09:01:16.572Z,13910.0000
2023-04-15T09:02:18.199Z,13884.3076
2023-04-15T09:03:19.513Z,13857.8457
2023-04-15T09:04:20.927Z,13842.0000
2023-04-15T09:05:22.301Z,13887.5381
2023-04-15T09:06:23.782Z,13906.3848
2023-04-15T09:07:25.360Z,13903.8457
2023-04-15T09:08:26.763Z,13882.7695
2023-04-15T09:09:28.042Z,13868.1543
2023-04-15T09:10:29.555Z,13871.6924
2023-04-15T09:11:30.995Z,13893.4619
2023-04-15T09:12:32.475Z,13911.2305
2023-04-15T09:13:33.907Z,13891.8457
2023-04-15T09:14:35.355Z,13865.6924
2023-04-15T09:15:36.689Z,13862.8457
2023-04-15T09:16:38.206Z,13874.2305
2023-04-15T09:17:39.662Z,13890.3848
2023-04-15T09:18:41.134Z,13910.6924
2023-04-15T09:19:42.463Z,13887.9229
2023-04-15T09:20:43.945Z,13862.0771
2023-04-15T09:21:45.349Z,13860.0771
2023-04-15T09:22:46.932Z,13883.7695
2023-04-15T09:23:48.241Z,13890.6152
2023-04-15T09:24:49.680Z,13909.3076
2023-04-15T09:25:51.081Z,13885.3848
2023-04-15T09:26:52.554Z,13869.0771
2023-04-15T09:27:54.006Z,13851.6152
2023-04-15T09:28:55.565Z,13875.6152
2023-04-15T09:29:56.929Z,13893.0771
2023-04-15T09:30:58.335Z,13903.4619
2023-04-15T09:31:59.721Z,13869.6152
2023-04-15T09:33:01.278Z,13858.1543
2023-04-15T09:34:02.879Z,13854.8457
2023-04-15T09:35:06.889Z,13875.0771
2023-04-15T09:36:05.485Z,13898.0771
2023-04-15T09:37:07.813Z,13908.0000
2023-04-15T09:38:08.453Z,13877.5381
2023-04-15T09:39:09.941Z,13865.3076
2023-04-15T09:40:11.839Z,13863.7695
2023-04-15T09:41:12.778Z,13879.7695
2023-04-15T09:42:14.149Z,13901.6152
2023-04-15T09:43:15.663Z,13904.3848
2023-04-15T09:44:17.021Z,13873.5381
2023-04-15T09:45:18.486Z,13864.4619
2023-04-15T09:46:19.923Z,13848.9229
2023-04-15T09:47:21.423Z,13884.3848
2023-04-15T09:48:22.790Z,13907.8457
2023-04-15T09:49:24.306Z,13902.3848
2023-04-15T09:50:25.661Z,13867.8457
2023-04-15T09:51:27.113Z,13868.0000
2023-04-15T09:52:28.541Z,13859.6924
2023-04-15T09:53:31.856Z,13890.4619
2023-04-15T09:54:31.502Z,13897.2305
2023-04-15T09:55:32.888Z,13902.3076
2023-04-15T09:56:34.299Z,13878.0771
2023-04-15T09:57:35.757Z,13875.6152
2023-04-15T09:58:37.217Z,13870.0771
2023-04-15T09:59:38.749Z,13891.8457
2023-04-15T10:00:40.103Z,13913.3076
2023-04-15T10:01:41.612Z,13901.8457
2023-04-15T10:02:43.077Z,13868.2305
2023-04-15T10:03:44.576Z,13872.9229
2023-04-15T10:04:45.842Z,13889.8457
2023-04-15T10:05:47.302Z,13882.7695
2023-04-15T10:06:48.724Z,13906.4619
2023-04-15T10:07:50.190Z,13895.1543
2023-04-15T10:08:51.674Z,13871.8457
2023-04-15T10:09:53.146Z,13865.2305
2023-04-15T10:10:54.474Z,13886.7695
2023-04-15T10:11:55.962Z,13888.5381
2023-04-15T10:12:57.343Z,13911.3848
2023-04-15T10:13:58.923Z,13887.1543
2023-04-15T10:15:00.267Z,13868.2305
2023-04-15T10:16:01.737Z,13864.9229
2023-04-15T10:17:03.119Z,13886.3076
2023-04-15T10:18:04.597Z,13895.5381
2023-04-15T10:19:06.003Z,13913.0771
2023-04-15T10:20:07.490Z,13885.1543
2023-04-15T10:21:08.844Z,13871.1543
2023-04-15T10:22:10.312Z,13858.3076
2023-04-15T10:23:12.890Z,13884.6924
2023-04-15T10:24:13.300Z,13902.2305
2023-04-15T10:25:14.625Z,13911.9229
2023-04-15T10:26:16.074Z,13888.3076
2023-04-15T10:27:17.470Z,13865.4619
2023-04-15T10:28:18.938Z,13860.3076
2023-04-15T10:29:20.438Z,13890.9229
2023-04-15T10:30:21.838Z,13907.4619
2023-04-15T10:31:23.221Z,13912.4619
2023-04-15T10:32:24.736Z,13869.8457
2023-04-15T10:33:26.122Z,13856.7695
2023-04-15T10:34:27.603Z,13870.5381
2023-04-15T10:35:28.973Z,13883.1543
2023-04-15T10:36:30.423Z,13904.5381
2023-04-15T10:37:31.918Z,13905.2305
2023-04-15T10:38:33.312Z,13874.9229
2023-04-15T10:39:34.836Z,13865.0771
2023-04-15T10:40:36.220Z,13873.3848
2023-04-15T10:41:37.585Z,13882.7695
2023-04-15T10:42:39.104Z,13905.1543
2023-04-15T10:43:40.460Z,13900.6152
2023-04-15T10:44:41.933Z,13867.3848
2023-04-15T10:45:43.415Z,13862.0000
2023-04-15T10:46:44.790Z,13886.7695
2023-04-15T10:47:46.265Z,13887.0000
2023-04-15T10:48:47.622Z,13906.8457
2023-04-15T10:49:49.194Z,13887.9229
2023-04-15T10:50:50.582Z,13863.0771
2023-04-15T10:51:51.976Z,13881.9229
2023-04-15T10:52:53.403Z,13887.9229
2023-04-15T10:53:54.852Z,13902.5381
2023-04-15T10:54:56.341Z,13905.7695
2023-04-15T10:55:57.774Z,13888.8457
2023-04-15T10:56:59.141Z,13869.7695
2023-04-15T10:58:00.613Z,13861.3076
2023-04-15T10:59:02.012Z,13884.6152
2023-04-15T11:00:03.525Z,13903.4619
2023-04-15T11:01:05.488Z,13909.3076
2023-04-15T11:02:06.437Z,13880.3076
2023-04-15T11:03:07.991Z,13864.6152
2023-04-15T11:04:09.362Z,13885.0771
2023-04-15T11:05:10.645Z,13892.0771
2023-04-15T11:06:12.128Z,13897.0771
2023-04-15T11:07:13.499Z,13909.0000
2023-04-15T11:08:14.952Z,13879.4619
2023-04-15T11:09:16.361Z,13866.5381
2023-04-15T11:10:17.922Z,13876.6152
2023-04-15T11:11:19.271Z,13883.1543
2023-04-15T11:12:21.371Z,13892.8457
2023-04-15T11:13:22.121Z,13904.5381
2023-04-15T11:14:23.593Z,13876.6152
2023-04-15T11:15:25.060Z,13847.0000
2023-04-15T11:16:26.980Z,13873.6152
2023-04-15T11:17:27.966Z,13881.3848
2023-04-15T11:18:29.338Z,13891.7695
2023-04-15T11:19:30.803Z,13907.6924
2023-04-15T11:20:32.239Z,13886.6152
2023-04-15T11:21:33.684Z,13859.1543